createdAt,value
2022-12-24T00:01:39.051Z,6.10
2022-12-24T00:04:06.789Z,6.00
2022-12-24T00:06:33.946Z,6.10
2022-12-24T00:09:00.986Z,6.00
2022-12-24T00:11:28.037Z,5.90
2022-12-24T00:13:55.141Z,5.80
2022-12-24T00:16:22.298Z,5.70
2022-12-24T00:18:49.261Z,5.60
2022-12-24T00:21:16.792Z,5.60
2022-12-24T00:23:44.186Z,5.50
2022-12-24T00:26:12.028Z,5.50
2022-12-24T00:28:39.046Z,5.60
2022-12-24T00:31:15.743Z,5.70
2022-12-24T00:33:43.264Z,5.90
2022-12-24T00:36:10.683Z,5.90
2022-12-24T00:38:38.373Z,6.00
2022-12-24T00:41:25.129Z,6.00
2022-12-24T00:43:58.355Z,6.10
2022-12-24T00:46:26.819Z,6.20
2022-12-24T00:48:54.411Z,6.20
2022-12-24T00:51:22.276Z,6.30
2022-12-24T00:53:49.907Z,6.30
2022-12-24T00:56:17.663Z,6.30
2022-12-24T00:58:44.858Z,6.30
2022-12-24T01:01:12.392Z,6.20
2022-12-24T01:03:39.742Z,6.30
2022-12-24T01:06:12.701Z,6.20
2022-12-24T01:08:40.477Z,6.20
2022-12-24T01:11:09.101Z,6.10
2022-12-24T01:13:36.279Z,6.10
2022-12-24T01:16:04.148Z,6.00
2022-12-24T01:18:31.125Z,6.00
2022-12-24T01:21:03.647Z,6.00
2022-12-24T01:23:31.320Z,6.00
2022-12-24T01:26:05.254Z,6.00
2022-12-24T01:28:32.703Z,6.10
2022-12-24T01:30:59.808Z,6.10
2022-12-24T01:33:30.453Z,6.10
2022-12-24T01:35:57.506Z,6.10
2022-12-24T01:38:24.462Z,6.20
2022-12-24T01:41:10.172Z,6.20
2022-12-24T01:43:37.258Z,6.20
2022-12-24T01:46:25.422Z,6.20
2022-12-24T01:49:02.674Z,6.20
2022-12-24T01:51:36.434Z,6.30
2022-12-24T01:54:38.780Z,6.30
2022-12-24T01:57:10.951Z,6.30
2022-12-24T01:59:40.401Z,6.30
2022-12-24T02:02:07.705Z,6.20
2022-12-24T02:05:01.486Z,6.20
2022-12-24T02:07:28.774Z,6.20
2022-12-24T02:09:59.215Z,6.30
2022-12-24T02:12:29.121Z,6.30
2022-12-24T02:14:57.034Z,6.30
2022-12-24T02:17:31.710Z,6.30
2022-12-24T02:20:32.031Z,6.30
2022-12-24T02:23:17.326Z,6.30
2022-12-24T02:26:04.772Z,6.20
2022-12-24T02:28:52.869Z,6.20
2022-12-24T02:31:29.283Z,6.30
2022-12-24T02:34:06.491Z,6.20
2022-12-24T02:36:55.907Z,6.20
2022-12-24T02:39:33.913Z,6.20
2022-12-24T02:42:08.744Z,6.20
2022-12-24T02:44:47.705Z,6.10
2022-12-24T02:47:17.025Z,6.10
2022-12-24T02:49:46.157Z,6.20
2022-12-24T02:52:31.288Z,6.20
2022-12-24T02:55:01.865Z,6.20
2022-12-24T02:57:32.966Z,6.20
2022-12-24T03:00:05.966Z,6.20
2022-12-24T03:02:53.037Z,6.20
2022-12-24T03:05:41.771Z,6.20
2022-12-24T03:08:39.806Z,6.20
2022-12-24T03:11:11.049Z,6.30
2022-12-24T03:13:38.493Z,6.20
2022-12-24T03:16:09.429Z,6.20
2022-12-24T03:18:39.276Z,6.20
2022-12-24T03:21:10.851Z,6.10
2022-12-24T03:23:38.215Z,6.10
2022-12-24T03:26:09.179Z,6.00
2022-12-24T03:28:40.669Z,5.90
2022-12-24T03:31:09.190Z,5.80
2022-12-24T03:33:36.548Z,5.80
2022-12-24T03:36:04.903Z,5.80
2022-12-24T03:38:32.243Z,5.90
2022-12-24T03:40:59.386Z,5.80
2022-12-24T03:43:26.539Z,5.80
2022-12-24T03:45:53.670Z,5.70
2022-12-24T03:48:20.873Z,5.60
2022-12-24T03:50:47.852Z,5.60
2022-12-24T03:53:14.775Z,5.50
2022-12-24T03:55:41.878Z,5.40
2022-12-24T03:58:08.870Z,5.30
2022-12-24T04:00:35.926Z,5.30
2022-12-24T04:03:02.927Z,5.20
2022-12-24T04:05:29.964Z,5.20
2022-12-24T04:07:57.038Z,5.30
2022-12-24T04:10:24.047Z,5.30
2022-12-24T04:12:51.059Z,5.30
2022-12-24T04:15:18.074Z,5.20
2022-12-24T04:17:45.058Z,5.20
2022-12-24T04:20:12.641Z,5.10
2022-12-24T04:22:39.708Z,5.10
2022-12-24T04:25:07.431Z,5.00
2022-12-24T04:27:34.501Z,5.00
2022-12-24T04:30:01.462Z,4.90
2022-12-24T04:32:28.848Z,4.80
2022-12-24T04:34:56.142Z,4.80
2022-12-24T04:37:23.135Z,4.80
2022-12-24T04:39:50.085Z,4.70
2022-12-24T04:42:17.103Z,4.60
2022-12-24T04:44:44.125Z,4.70
2022-12-24T04:47:11.159Z,4.70
2022-12-24T04:49:38.211Z,4.80
2022-12-24T04:52:05.455Z,4.80
2022-12-24T04:54:32.572Z,4.80
2022-12-24T04:56:59.598Z,4.80
2022-12-24T04:59:26.511Z,4.90
2022-12-24T05:01:53.769Z,4.90
2022-12-24T05:04:21.019Z,4.90
2022-12-24T05:06:48.066Z,4.80
2022-12-24T05:09:15.005Z,4.80
2022-12-24T05:11:42.032Z,4.80
2022-12-24T05:14:09.047Z,4.70
2022-12-24T05:16:36.208Z,4.70
2022-12-24T05:19:03.201Z,4.80
2022-12-24T05:21:30.194Z,4.80
2022-12-24T05:24:15.923Z,4.90
2022-12-24T05:26:53.395Z,4.90
2022-12-24T05:29:21.249Z,4.90
2022-12-24T05:31:48.532Z,4.90
2022-12-24T05:34:17.004Z,5.00
2022-12-24T05:36:44.731Z,5.10
2022-12-24T05:39:16.389Z,5.10
2022-12-24T05:41:44.178Z,5.20
2022-12-24T05:44:11.197Z,5.20
2022-12-24T05:46:38.240Z,5.30
2022-12-24T05:49:05.315Z,5.30
2022-12-24T05:51:32.255Z,5.40
2022-12-24T05:53:59.374Z,5.40
2022-12-24T05:56:26.368Z,5.40
2022-12-24T05:58:54.845Z,5.40
2022-12-24T06:01:23.270Z,5.40
2022-12-24T06:03:50.908Z,5.40
2022-12-24T06:06:23.676Z,5.50
2022-12-24T06:08:51.896Z,5.50
2022-12-24T06:11:21.654Z,5.50
2022-12-24T06:13:48.763Z,5.50
2022-12-24T06:16:18.702Z,5.60
2022-12-24T06:18:46.324Z,5.60
2022-12-24T06:21:13.948Z,5.50
2022-12-24T06:23:42.958Z,5.50
2022-12-24T06:26:13.219Z,5.50
2022-12-24T06:28:40.191Z,5.50
2022-12-24T06:31:10.905Z,5.50
2022-12-24T06:33:37.931Z,5.50
2022-12-24T06:36:15.125Z,5.50
2022-12-24T06:38:44.239Z,5.60
2022-12-24T06:41:11.189Z,5.60
2022-12-24T06:43:38.311Z,5.60
2022-12-24T06:46:05.769Z,5.70
2022-12-24T06:48:32.956Z,5.70
2022-12-24T06:51:03.010Z,5.80
2022-12-24T06:53:30.713Z,5.80
2022-12-24T06:56:09.232Z,5.80
2022-12-24T06:58:36.840Z,5.80
2022-12-24T07:01:07.489Z,5.80
2022-12-24T07:03:35.039Z,5.80
2022-12-24T07:06:02.277Z,5.80
2022-12-24T07:08:29.562Z,5.90
2022-12-24T07:10:56.621Z,5.90
2022-12-24T07:13:23.729Z,6.00
2022-12-24T07:16:01.823Z,6.00
2022-12-24T07:18:29.322Z,6.10
2022-12-24T07:20:56.455Z,6.10
2022-12-24T07:23:23.555Z,6.10
2022-12-24T07:25:50.628Z,6.10
2022-12-24T07:28:22.313Z,6.20
2022-12-24T07:30:52.743Z,6.20
2022-12-24T07:33:19.791Z,6.20
2022-12-24T07:35:50.799Z,6.20
2022-12-24T07:38:21.060Z,6.20
2022-12-24T07:40:48.931Z,6.20
2022-12-24T07:43:16.019Z,6.30
2022-12-24T07:45:43.213Z,6.40
2022-12-24T07:48:10.225Z,6.50
2022-12-24T07:50:37.151Z,6.60
2022-12-24T07:53:04.100Z,6.70
2022-12-24T07:55:31.128Z,6.70
2022-12-24T07:57:58.171Z,6.80
2022-12-24T08:00:25.137Z,6.80
2022-12-24T08:02:52.322Z,6.90
2022-12-24T08:05:19.367Z,6.90
2022-12-24T08:07:46.459Z,7.00
2022-12-24T08:10:13.451Z,7.10
2022-12-24T08:12:40.379Z,7.10
2022-12-24T08:15:07.936Z,7.10
2022-12-24T08:17:34.988Z,7.10
2022-12-24T08:20:02.250Z,7.20
2022-12-24T08:22:29.261Z,7.20
2022-12-24T08:24:56.356Z,7.20
2022-12-24T08:27:23.345Z,7.20
2022-12-24T08:29:50.308Z,7.20
2022-12-24T08:32:17.937Z,7.30
2022-12-24T08:34:45.123Z,7.30
2022-12-24T08:37:12.236Z,7.40
2022-12-24T08:39:39.173Z,7.50
2022-12-24T08:42:06.322Z,7.60
2022-12-24T08:44:33.364Z,7.70
2022-12-24T08:47:00.482Z,7.70
2022-12-24T08:49:27.531Z,7.80
2022-12-24T08:51:54.674Z,8.00
2022-12-24T08:54:22.601Z,8.50
2022-12-24T08:56:49.844Z,8.80
2022-12-24T08:59:17.008Z,9.30
2022-12-24T09:01:44.355Z,9.40
2022-12-24T09:04:11.513Z,9.30
2022-12-24T09:06:38.678Z,9.20
2022-12-24T09:09:08.718Z,9.60
2022-12-24T09:11:36.134Z,9.90
2022-12-24T09:14:03.356Z,9.70
2022-12-24T09:16:30.418Z,9.50
2022-12-24T09:18:58.527Z,9.60
2022-12-24T09:21:25.571Z,9.60
2022-12-24T09:23:52.866Z,9.40
2022-12-24T09:26:25.737Z,9.30
2022-12-24T09:28:53.758Z,9.10
2022-12-24T09:31:21.983Z,9.00
2022-12-24T09:33:51.050Z,8.80
2022-12-24T09:36:18.727Z,8.60
2022-12-24T09:38:46.124Z,8.60
2022-12-24T09:41:35.200Z,8.50
2022-12-24T09:44:20.435Z,8.50
2022-12-24T09:46:49.848Z,8.50
2022-12-24T09:49:24.897Z,8.50
2022-12-24T09:52:02.141Z,8.50
2022-12-24T09:54:34.909Z,8.50
2022-12-24T09:57:07.696Z,8.60
2022-12-24T09:59:44.022Z,8.60
2022-12-24T10:02:17.496Z,8.60
2022-12-24T10:04:46.273Z,8.60
2022-12-24T10:07:51.940Z,8.70
2022-12-24T10:10:24.660Z,8.70
2022-12-24T10:13:35.753Z,8.70
2022-12-24T10:16:26.810Z,8.60
2022-12-24T10:19:09.808Z,8.70
2022-12-24T10:21:45.635Z,8.70
2022-12-24T10:24:42.364Z,8.80
2022-12-24T10:27:15.172Z,8.90
2022-12-24T10:29:55.298Z,8.90
2022-12-24T10:32:28.951Z,9.00
2022-12-24T10:34:59.850Z,9.00
2022-12-24T10:37:29.213Z,9.00
2022-12-24T10:39:58.263Z,9.10
2022-12-24T10:42:35.992Z,9.10
2022-12-24T10:45:06.544Z,9.10
2022-12-24T10:47:38.123Z,9.10
2022-12-24T10:50:11.338Z,9.00
2022-12-24T10:52:42.072Z,9.00
2022-12-24T10:55:24.272Z,9.00
2022-12-24T10:58:05.587Z,9.10
2022-12-24T11:00:36.225Z,9.10
2022-12-24T11:03:12.984Z,9.10
2022-12-24T11:05:40.616Z,9.10
2022-12-24T11:08:17.625Z,9.10
2022-12-24T11:11:16.738Z,9.10
2022-12-24T11:13:57.510Z,9.10
2022-12-24T11:16:32.183Z,9.10
2022-12-24T11:19:02.387Z,9.10
2022-12-24T11:21:32.492Z,9.00
2022-12-24T11:24:21.692Z,9.00
2022-12-24T11:26:48.724Z,9.00
2022-12-24T11:29:22.076Z,8.90
2022-12-24T11:31:50.710Z,8.80
2022-12-24T11:34:43.237Z,8.80
2022-12-24T11:37:20.479Z,8.80
2022-12-24T11:39:56.370Z,8.70
2022-12-24T11:42:38.670Z,8.70
2022-12-24T11:45:24.691Z,8.70
2022-12-24T11:47:53.833Z,8.70
2022-12-24T11:50:20.890Z,8.80
2022-12-24T11:52:55.266Z,8.80
2022-12-24T11:55:34.057Z,8.80
2022-12-24T11:58:27.525Z,8.80
2022-12-24T12:01:15.265Z,8.70
2022-12-24T12:03:49.748Z,8.50
2022-12-24T12:06:32.739Z,8.40
2022-12-24T12:09:31.554Z,8.40
2022-12-24T12:12:09.613Z,8.30
2022-12-24T12:14:51.440Z,8.30
2022-12-24T12:17:27.358Z,8.20
2022-12-24T12:19:58.007Z,8.20
2022-12-24T12:22:29.229Z,8.10
2022-12-24T12:24:58.199Z,8.00
2022-12-24T12:27:44.294Z,8.00
2022-12-24T12:30:20.553Z,8.00
2022-12-24T12:33:02.862Z,8.00
2022-12-24T12:35:34.740Z,8.00
2022-12-24T12:38:06.919Z,8.00
2022-12-24T12:40:48.973Z,7.90
2022-12-24T12:43:39.559Z,7.90
2022-12-24T12:46:26.737Z,7.80
2022-12-24T12:49:02.745Z,7.80
2022-12-24T12:51:58.927Z,7.90
2022-12-24T12:54:36.461Z,7.80
2022-12-24T12:57:08.989Z,7.80
2022-12-24T12:59:42.538Z,7.80
2022-12-24T13:02:43.168Z,7.80
2022-12-24T13:05:10.342Z,7.80
2022-12-24T13:08:06.240Z,7.80
2022-12-24T13:10:47.701Z,7.70
2022-12-24T13:13:35.564Z,7.80
2022-12-24T13:16:39.819Z,7.70
2022-12-24T13:19:37.609Z,7.70
2022-12-24T13:22:05.969Z,7.70
2022-12-24T13:24:33.699Z,7.70
2022-12-24T13:27:18.727Z,7.70
2022-12-24T13:30:02.196Z,7.60
2022-12-24T13:32:34.041Z,7.50
2022-12-24T13:35:04.564Z,7.50
2022-12-24T13:37:32.338Z,7.50
2022-12-24T13:40:08.692Z,7.50
2022-12-24T13:43:04.731Z,7.50
2022-12-24T13:45:31.751Z,7.40
2022-12-24T13:48:14.702Z,7.40
2022-12-24T13:50:49.287Z,7.40
2022-12-24T13:53:28.397Z,7.30
2022-12-24T13:56:01.112Z,7.30
2022-12-24T13:58:28.337Z,7.30
2022-12-24T14:01:00.619Z,7.30
2022-12-24T14:03:41.939Z,7.20
2022-12-24T14:06:23.298Z,7.20
2022-12-24T14:08:54.257Z,7.20
2022-12-24T14:11:25.517Z,7.20
2022-12-24T14:13:54.060Z,7.20
2022-12-24T14:16:24.139Z,7.10
2022-12-24T14:18:59.436Z,7.00
2022-12-24T14:21:31.336Z,7.00
2022-12-24T14:24:00.384Z,6.90
2022-12-24T14:26:56.166Z,6.90
2022-12-24T14:29:31.251Z,6.80
2022-12-24T14:32:00.036Z,6.80
2022-12-24T14:34:27.929Z,6.70
2022-12-24T14:36:56.312Z,6.70
2022-12-24T14:39:29.569Z,6.70
2022-12-24T14:42:22.778Z,6.70
2022-12-24T14:45:04.412Z,6.70
2022-12-24T14:47:49.207Z,6.70
2022-12-24T14:50:16.206Z,6.80
2022-12-24T14:53:09.458Z,6.80
2022-12-24T14:55:45.655Z,6.90
2022-12-24T14:58:19.862Z,6.90
2022-12-24T15:00:47.096Z,7.00
2022-12-24T15:03:16.357Z,7.00
2022-12-24T15:05:44.725Z,7.00
2022-12-24T15:08:18.408Z,7.00
2022-12-24T15:10:50.488Z,7.00
2022-12-24T15:13:38.013Z,7.00
2022-12-24T15:16:11.401Z,7.10
2022-12-24T15:18:48.457Z,7.10
2022-12-24T15:21:22.704Z,7.10
2022-12-24T15:23:52.205Z,7.10
2022-12-24T15:26:30.039Z,7.10
2022-12-24T15:29:03.320Z,7.20
2022-12-24T15:31:31.880Z,7.20
2022-12-24T15:33:59.848Z,7.20
2022-12-24T15:36:34.623Z,7.10
2022-12-24T15:39:06.258Z,7.10
2022-12-24T15:42:02.765Z,7.10
2022-12-24T15:44:35.253Z,7.10
2022-12-24T15:47:05.181Z,7.10
2022-12-24T15:49:33.713Z,7.10
2022-12-24T15:52:08.319Z,7.10
2022-12-24T15:54:36.144Z,7.10
2022-12-24T15:57:23.876Z,7.10
2022-12-24T15:59:59.581Z,7.10
2022-12-24T16:02:43.364Z,7.10
2022-12-24T16:05:29.695Z,7.10
2022-12-24T16:08:07.758Z,7.10
2022-12-24T16:10:39.661Z,7.10
2022-12-24T16:13:18.245Z,7.10
2022-12-24T16:16:01.466Z,7.10
2022-12-24T16:18:32.417Z,7.20
2022-12-24T16:20:59.782Z,7.20
2022-12-24T16:23:34.485Z,7.20
2022-12-24T16:26:01.494Z,7.30
2022-12-24T16:28:28.592Z,7.30
2022-12-24T16:30:56.708Z,7.30
2022-12-24T16:33:24.252Z,7.30
2022-12-24T16:35:51.511Z,7.30
2022-12-24T16:38:18.445Z,7.30
2022-12-24T16:40:45.579Z,7.30
2022-12-24T16:43:31.883Z,7.30
2022-12-24T16:46:04.899Z,7.40
2022-12-24T16:48:36.349Z,7.40
2022-12-24T16:51:03.792Z,7.40
2022-12-24T16:53:30.751Z,7.40
2022-12-24T16:55:58.296Z,7.40
2022-12-24T16:58:25.390Z,7.50
2022-12-24T17:00:53.596Z,7.50
2022-12-24T17:03:20.799Z,7.50
2022-12-24T17:05:47.976Z,7.50
2022-12-24T17:08:15.313Z,7.50
2022-12-24T17:10:50.330Z,7.50
2022-12-24T17:13:17.515Z,7.40
2022-12-24T17:15:44.500Z,7.40
2022-12-24T17:18:11.485Z,7.40
2022-12-24T17:20:38.413Z,7.40
2022-12-24T17:23:09.524Z,7.30
2022-12-24T17:25:36.807Z,7.30
2022-12-24T17:28:03.892Z,7.30
2022-12-24T17:30:30.889Z,7.30
2022-12-24T17:32:57.829Z,7.30
2022-12-24T17:35:24.945Z,7.30
2022-12-24T17:37:52.007Z,7.30
2022-12-24T17:40:19.067Z,7.30
2022-12-24T17:42:46.078Z,7.30
2022-12-24T17:45:13.095Z,7.20
2022-12-24T17:47:40.110Z,7.20
2022-12-24T17:50:07.911Z,7.20
2022-12-24T17:52:34.942Z,7.20
2022-12-24T17:55:01.909Z,7.20
2022-12-24T17:57:28.964Z,7.20
2022-12-24T17:59:57.373Z,7.20
2022-12-24T18:02:24.679Z,7.30
2022-12-24T18:04:51.818Z,7.30
2022-12-24T18:07:18.781Z,7.30
2022-12-24T18:09:46.158Z,7.20
2022-12-24T18:12:14.074Z,7.20
2022-12-24T18:14:41.046Z,7.20
2022-12-24T18:17:08.055Z,7.20
2022-12-24T18:19:35.168Z,7.20
2022-12-24T18:22:02.200Z,7.10
2022-12-24T18:24:29.228Z,7.20
2022-12-24T18:26:56.711Z,7.20
2022-12-24T18:29:23.777Z,7.20
2022-12-24T18:31:51.255Z,7.20
2022-12-24T18:34:18.431Z,7.20
2022-12-24T18:36:49.635Z,7.10
2022-12-24T18:39:20.386Z,7.00
2022-12-24T18:41:47.683Z,6.90
2022-12-24T18:44:18.083Z,6.80
2022-12-24T18:46:47.906Z,6.70
2022-12-24T18:49:14.932Z,6.60
2022-12-24T18:51:41.869Z,6.60
2022-12-24T18:54:08.880Z,6.60
2022-12-24T18:56:35.824Z,6.60
2022-12-24T18:59:03.545Z,6.60
2022-12-24T19:01:34.936Z,6.70
2022-12-24T19:04:03.002Z,6.70
2022-12-24T19:06:30.428Z,6.70
2022-12-24T19:08:59.753Z,6.80
2022-12-24T19:11:30.386Z,6.70
2022-12-24T19:13:58.606Z,6.70
2022-12-24T19:16:26.491Z,6.70
2022-12-24T19:18:53.774Z,6.70
2022-12-24T19:21:20.802Z,6.70
2022-12-24T19:23:48.269Z,6.70
2022-12-24T19:26:16.762Z,6.80
2022-12-24T19:28:44.563Z,6.80
2022-12-24T19:31:14.425Z,6.90
2022-12-24T19:33:44.088Z,6.90
2022-12-24T19:36:15.121Z,6.90
2022-12-24T19:38:42.631Z,6.90
2022-12-24T19:41:16.142Z,6.90
2022-12-24T19:43:45.357Z,6.90
2022-12-24T19:46:14.717Z,6.80
2022-12-24T19:48:42.142Z,6.80
2022-12-24T19:51:12.344Z,6.70
2022-12-24T19:53:40.069Z,6.60
2022-12-24T19:56:08.737Z,6.50
2022-12-24T19:58:36.239Z,6.50
2022-12-24T20:01:12.697Z,6.40
2022-12-24T20:03:42.117Z,6.40
2022-12-24T20:06:09.191Z,6.40
2022-12-24T20:08:37.639Z,6.40
2022-12-24T20:11:06.674Z,6.40
2022-12-24T20:13:34.866Z,6.40
2022-12-24T20:16:13.965Z,6.30
2022-12-24T20:18:41.486Z,6.30
2022-12-24T20:21:11.442Z,6.30
2022-12-24T20:23:42.120Z,6.40
2022-12-24T20:26:13.054Z,6.40
2022-12-24T20:28:41.508Z,6.40
2022-12-24T20:31:14.891Z,6.40
2022-12-24T20:33:43.071Z,6.40
2022-12-24T20:36:11.168Z,6.40
2022-12-24T20:38:38.751Z,6.30
2022-12-24T20:41:06.515Z,6.30
2022-12-24T20:43:36.297Z,6.30
2022-12-24T20:46:04.944Z,6.30
2022-12-24T20:48:32.160Z,6.30
2022-12-24T20:50:59.543Z,6.30
2022-12-24T20:53:27.022Z,6.20
2022-12-24T20:55:54.159Z,6.20
2022-12-24T20:58:21.213Z,6.20
2022-12-24T21:00:49.706Z,6.10
2022-12-24T21:03:18.151Z,6.10
2022-12-24T21:05:45.512Z,6.10
2022-12-24T21:08:13.658Z,6.00
2022-12-24T21:10:41.030Z,6.00
2022-12-24T21:13:08.316Z,6.10
2022-12-24T21:15:39.547Z,6.10
2022-12-24T21:18:11.931Z,6.10
2022-12-24T21:20:41.154Z,6.10
2022-12-24T21:23:08.395Z,6.10
2022-12-24T21:25:35.990Z,6.10
2022-12-24T21:28:02.974Z,6.10
2022-12-24T21:30:30.154Z,6.00
2022-12-24T21:32:57.171Z,6.10
2022-12-24T21:35:24.361Z,6.20
2022-12-24T21:37:51.446Z,6.20
2022-12-24T21:40:18.532Z,6.30
2022-12-24T21:42:45.533Z,6.30
2022-12-24T21:45:12.620Z,6.20
2022-12-24T21:47:39.636Z,6.20
2022-12-24T21:50:31.703Z,6.20
2022-12-24T21:53:19.764Z,6.20
2022-12-24T21:55:46.770Z,6.20
2022-12-24T21:58:13.755Z,6.20
2022-12-24T22:00:40.857Z,6.20
2022-12-24T22:03:07.827Z,6.10
2022-12-24T22:05:35.581Z,6.10
2022-12-24T22:08:21.075Z,6.10
2022-12-24T22:11:06.824Z,6.10
2022-12-24T22:13:33.905Z,6.10
2022-12-24T22:16:00.945Z,6.00
2022-12-24T22:18:27.882Z,5.90
2022-12-24T22:20:55.944Z,5.90
2022-12-24T22:23:23.044Z,5.90
2022-12-24T22:25:50.024Z,5.90
2022-12-24T22:28:17.143Z,5.90
2022-12-24T22:30:44.205Z,6.00
2022-12-24T22:33:11.656Z,6.00
2022-12-24T22:35:39.984Z,6.00
2022-12-24T22:38:09.210Z,6.00
2022-12-24T22:40:38.669Z,6.00
2022-12-24T22:43:05.605Z,6.00
2022-12-24T22:45:32.673Z,6.10
2022-12-24T22:47:59.718Z,6.00
2022-12-24T22:50:26.890Z,6.00
2022-12-24T22:52:54.071Z,6.00
2022-12-24T22:55:21.598Z,6.00
2022-12-24T22:57:48.875Z,6.00
2022-12-24T23:00:36.215Z,6.00
2022-12-24T23:03:03.962Z,6.00
2022-12-24T23:05:31.115Z,6.10
2022-12-24T23:07:58.239Z,6.10
2022-12-24T23:10:25.264Z,6.10
2022-12-24T23:13:14.800Z,6.10
2022-12-24T23:15:42.687Z,6.10
2022-12-24T23:18:10.541Z,6.10
2022-12-24T23:20:45.337Z,6.10
2022-12-24T23:23:13.130Z,6.10
2022-12-24T23:25:40.148Z,6.20
2022-12-24T23:28:07.244Z,6.20
2022-12-24T23:30:34.607Z,6.10
2022-12-24T23:33:01.604Z,6.10
2022-12-24T23:35:28.589Z,6.20
2022-12-24T23:37:55.523Z,6.20
2022-12-24T23:40:22.644Z,6.20
2022-12-24T23:42:49.771Z,6.20
2022-12-24T23:45:16.968Z,6.20
2022-12-24T23:47:44.056Z,6.20
2022-12-24T23:50:11.711Z,6.20
2022-12-24T23:52:38.795Z,6.20
2022-12-24T23:55:06.441Z,6.10
2022-12-24T23:57:33.433Z,6.10
